createdAt,value
2022-08-16T00:00:04.393Z,79.35
2022-08-16T00:01:02.820Z,79.64
2022-08-16T00:02:02.920Z,80.05
2022-08-16T00:03:02.977Z,80.05
2022-08-16T00:04:05.127Z,80.35
2022-08-16T00:05:03.121Z,80.25
2022-08-16T00:06:03.213Z,80.05
2022-08-16T00:07:03.277Z,80.15
2022-08-16T00:08:04.924Z,79.85
2022-08-16T00:09:03.443Z,79.74
2022-08-16T00:10:03.517Z,79.74
2022-08-16T00:11:03.647Z,79.54
2022-08-16T00:12:03.685Z,79.35
2022-08-16T00:13:03.768Z,79.35
2022-08-16T00:14:08.871Z,79.14
2022-08-16T00:15:03.943Z,79.64
2022-08-16T00:17:05.331Z,79.35
2022-08-16T00:17:20.406Z,79.64
2022-08-16T00:18:04.179Z,79.85
2022-08-16T00:19:04.278Z,79.85
2022-08-16T00:20:04.355Z,79.81
2022-08-16T00:21:04.468Z,79.71
2022-08-16T00:22:06.944Z,80.25
2022-08-16T00:23:04.604Z,80.35
2022-08-16T00:24:05.105Z,80.55
2022-08-16T00:25:04.757Z,80.65
2022-08-16T00:26:35.391Z,80.65
2022-08-16T00:27:04.915Z,80.85
2022-08-16T00:28:04.961Z,80.85
2022-08-16T00:29:05.052Z,80.95
2022-08-16T00:30:19.154Z,81.05
2022-08-16T00:31:05.246Z,81.05
2022-08-16T00:32:05.947Z,81.05
2022-08-16T00:33:05.363Z,81.05
2022-08-16T00:34:05.422Z,80.65
2022-08-16T00:35:09.917Z,80.45
2022-08-16T00:36:05.593Z,80.45
2022-08-16T00:37:05.633Z,80.15
2022-08-16T00:38:40.961Z,79.81
2022-08-16T00:39:05.823Z,79.50
2022-08-16T00:40:05.915Z,79.50
2022-08-16T00:41:06.114Z,79.71
2022-08-16T00:42:06.074Z,80.01
2022-08-16T00:43:06.139Z,80.35
2022-08-16T00:44:06.239Z,80.45
2022-08-16T00:45:08.611Z,80.45
2022-08-16T00:46:32.891Z,80.55
2022-08-16T00:47:06.778Z,80.65
2022-08-16T00:48:28.640Z,80.75
2022-08-16T00:49:06.646Z,80.61
2022-08-16T00:50:08.259Z,80.51
2022-08-16T00:51:06.806Z,80.31
2022-08-16T00:52:29.157Z,80.21
2022-08-16T00:53:06.953Z,80.01
2022-08-16T00:54:07.035Z,80.01
2022-08-16T00:55:08.457Z,80.01
2022-08-16T00:56:07.203Z,79.81
2022-08-16T00:57:07.274Z,79.61
2022-08-16T00:58:12.927Z,79.37
2022-08-16T00:59:07.460Z,79.27
2022-08-16T01:00:07.554Z,79.17
2022-08-16T01:01:10.377Z,78.97
2022-08-16T01:02:30.275Z,79.06
2022-08-16T01:03:07.805Z,78.97
2022-08-16T01:04:29.444Z,78.77
2022-08-16T01:05:11.678Z,78.97
2022-08-16T01:06:39.884Z,78.97
2022-08-16T01:07:08.175Z,78.77
2022-08-16T01:08:35.204Z,78.77
2022-08-16T01:09:08.489Z,78.73
2022-08-16T01:10:15.915Z,79.06
2022-08-16T01:11:08.513Z,79.27
2022-08-16T01:12:10.654Z,78.97
2022-08-16T01:13:08.633Z,79.06
2022-08-16T01:14:09.199Z,78.97
2022-08-16T01:15:08.801Z,79.03
2022-08-16T01:16:10.303Z,78.73
2022-08-16T01:17:08.990Z,78.83
2022-08-16T01:18:09.079Z,78.73
2022-08-16T01:19:09.164Z,78.53
2022-08-16T01:20:24.311Z,78.53
2022-08-16T01:21:09.344Z,78.53
2022-08-16T01:22:49.566Z,78.42
2022-08-16T01:23:09.483Z,78.42
2022-08-16T01:24:53.210Z,78.42
2022-08-16T01:25:09.638Z,78.42
2022-08-16T01:26:34.382Z,78.33
2022-08-16T01:27:09.788Z,78.33
2022-08-16T01:28:09.864Z,78.33
2022-08-16T01:29:10.241Z,78.12
2022-08-16T01:30:20.434Z,78.12
2022-08-16T01:31:10.138Z,78.12
2022-08-16T01:32:10.224Z,78.12
2022-08-16T01:33:15.321Z,78.12
2022-08-16T01:34:19.401Z,78.12
2022-08-16T01:35:16.889Z,77.99
2022-08-16T01:36:11.885Z,77.89
2022-08-16T01:37:10.578Z,77.99
2022-08-16T01:38:10.649Z,77.89
2022-08-16T01:39:11.788Z,77.79
2022-08-16T01:40:10.822Z,77.79
2022-08-16T01:41:10.900Z,77.89
2022-08-16T01:42:13.080Z,77.79
2022-08-16T01:43:11.067Z,77.69
2022-08-16T01:44:11.145Z,77.89
2022-08-16T01:45:11.224Z,77.89
2022-08-16T01:46:30.144Z,77.99
2022-08-16T01:47:11.432Z,77.79
2022-08-16T01:48:19.283Z,77.79
2022-08-16T01:49:11.577Z,77.69
2022-08-16T01:50:43.208Z,77.69
2022-08-16T01:51:16.705Z,77.69
2022-08-16T01:52:29.550Z,77.99
2022-08-16T01:53:12.063Z,77.89
2022-08-16T01:54:13.298Z,77.99
2022-08-16T01:55:12.070Z,78.09
2022-08-16T01:56:24.563Z,77.89
2022-08-16T01:57:12.268Z,77.89
2022-08-16T01:58:12.424Z,77.89
2022-08-16T01:59:15.430Z,77.99
2022-08-16T02:00:19.347Z,77.99
2022-08-16T02:01:12.628Z,77.79
2022-08-16T02:02:26.843Z,77.79
2022-08-16T02:03:12.792Z,77.79
2022-08-16T02:04:12.789Z,77.69
2022-08-16T02:05:12.875Z,77.59
2022-08-16T02:06:12.946Z,77.69
2022-08-16T02:07:13.042Z,77.59
2022-08-16T02:08:33.933Z,77.59
2022-08-16T02:09:13.199Z,77.62
2022-08-16T02:10:13.269Z,77.59
2022-08-16T02:11:13.347Z,77.59
2022-08-16T02:12:49.406Z,77.48
2022-08-16T02:13:13.483Z,77.39
2022-08-16T02:14:18.145Z,77.32
2022-08-16T02:15:13.634Z,77.22
2022-08-16T02:16:18.417Z,77.32
2022-08-16T02:17:13.827Z,77.32
2022-08-16T02:18:13.897Z,77.42
2022-08-16T02:19:16.146Z,77.52
2022-08-16T02:20:14.086Z,77.62
2022-08-16T02:21:14.161Z,77.52
2022-08-16T02:22:33.380Z,77.52
2022-08-16T02:23:14.303Z,77.52
2022-08-16T02:24:32.143Z,77.42
2022-08-16T02:25:14.610Z,77.62
2022-08-16T02:26:16.958Z,77.62
2022-08-16T02:27:14.632Z,77.66
2022-08-16T02:28:17.273Z,77.76
2022-08-16T02:29:14.776Z,77.96
2022-08-16T02:30:37.553Z,77.96
2022-08-16T02:31:14.933Z,77.76
2022-08-16T02:32:49.732Z,78.16
2022-08-16T02:33:15.471Z,78.46
2022-08-16T02:34:15.142Z,78.56
2022-08-16T02:35:16.038Z,79.00
2022-08-16T02:36:47.308Z,79.41
2022-08-16T02:37:15.424Z,79.61
2022-08-16T02:38:15.488Z,80.05
2022-08-16T02:39:15.556Z,80.25
2022-08-16T02:40:16.377Z,80.45
2022-08-16T02:41:15.719Z,80.35
2022-08-16T02:42:15.831Z,80.55
2022-08-16T02:43:15.891Z,80.45
2022-08-16T02:44:15.992Z,80.45
2022-08-16T02:45:16.050Z,80.15
2022-08-16T02:46:16.149Z,79.94
2022-08-16T02:47:25.214Z,80.15
2022-08-16T02:48:28.945Z,79.85
2022-08-16T02:49:16.781Z,79.64
2022-08-16T02:50:54.118Z,79.64
2022-08-16T02:51:16.554Z,79.74
2022-08-16T02:52:17.211Z,79.85
2022-08-16T02:53:18.046Z,79.85
2022-08-16T02:54:17.002Z,79.85
2022-08-16T02:55:16.877Z,79.74
2022-08-16T02:56:16.979Z,79.94
2022-08-16T02:57:17.063Z,79.85
2022-08-16T02:58:17.141Z,80.05
2022-08-16T02:59:17.190Z,79.94
2022-08-16T03:00:34.023Z,79.74
2022-08-16T03:01:17.375Z,79.64
2022-08-16T03:02:17.518Z,79.85
2022-08-16T03:03:17.695Z,79.74
2022-08-16T03:04:41.351Z,80.08
2022-08-16T03:05:17.728Z,80.29
2022-08-16T03:06:42.068Z,80.29
2022-08-16T03:07:17.895Z,80.19
2022-08-16T03:08:52.611Z,80.29
2022-08-16T03:09:18.007Z,80.49
2022-08-16T03:10:18.071Z,80.39
2022-08-16T03:11:21.783Z,80.58
2022-08-16T03:12:18.249Z,80.79
2022-08-16T03:13:18.284Z,80.89
2022-08-16T03:14:21.170Z,80.69
2022-08-16T03:15:18.458Z,80.79
2022-08-16T03:16:37.958Z,80.69
2022-08-16T03:17:18.662Z,80.69
2022-08-16T03:18:34.431Z,80.79
2022-08-16T03:19:18.814Z,80.58
2022-08-16T03:20:18.881Z,80.58
2022-08-16T03:21:18.960Z,80.69
2022-08-16T03:22:28.833Z,80.58
2022-08-16T03:23:19.114Z,80.39
2022-08-16T03:24:29.215Z,80.39
2022-08-16T03:25:19.277Z,80.49
2022-08-16T03:26:19.363Z,80.49
2022-08-16T03:27:19.463Z,80.58
2022-08-16T03:28:19.532Z,80.49
2022-08-16T03:29:19.607Z,80.39
2022-08-16T03:30:19.827Z,80.19
2022-08-16T03:31:19.757Z,80.19
2022-08-16T03:32:19.877Z,80.19
2022-08-16T03:33:19.937Z,80.08
2022-08-16T03:34:20.035Z,80.63
2022-08-16T03:35:20.111Z,80.52
2022-08-16T03:36:31.235Z,80.93
2022-08-16T03:37:20.315Z,80.73
2022-08-16T03:38:32.973Z,80.73
2022-08-16T03:39:20.685Z,80.73
2022-08-16T03:40:31.376Z,80.73
2022-08-16T03:41:25.080Z,80.83
2022-08-16T03:42:23.064Z,80.83
2022-08-16T03:43:21.760Z,80.73
2022-08-16T03:44:44.325Z,80.93
2022-08-16T03:45:23.742Z,80.83
2022-08-16T03:46:47.729Z,80.83
2022-08-16T03:47:21.170Z,80.73
2022-08-16T03:48:21.243Z,81.13
2022-08-16T03:49:22.599Z,81.03
2022-08-16T03:50:25.953Z,80.93
2022-08-16T03:51:23.612Z,81.03
2022-08-16T03:52:23.419Z,80.93
2022-08-16T03:53:21.629Z,80.83
2022-08-16T03:54:21.721Z,81.03
2022-08-16T03:55:21.799Z,80.93
2022-08-16T03:56:21.886Z,80.73
2022-08-16T03:57:21.984Z,81.03
2022-08-16T03:58:22.048Z,81.23
2022-08-16T03:59:22.122Z,81.03
2022-08-16T04:00:35.156Z,81.13
2022-08-16T04:01:22.383Z,80.93
2022-08-16T04:02:31.690Z,81.33
2022-08-16T04:03:22.488Z,81.37
2022-08-16T04:04:32.523Z,81.37
2022-08-16T04:05:22.625Z,81.57
2022-08-16T04:06:22.697Z,81.57
2022-08-16T04:07:22.777Z,81.67
2022-08-16T04:08:24.533Z,81.87
2022-08-16T04:09:22.919Z,81.98
2022-08-16T04:10:36.579Z,81.98
2022-08-16T04:11:23.789Z,82.07
2022-08-16T04:12:54.778Z,82.07
2022-08-16T04:14:01.161Z,82.21
2022-08-16T04:14:32.508Z,82.51
2022-08-16T04:15:23.412Z,82.71
2022-08-16T04:16:27.171Z,82.51
2022-08-16T04:17:24.315Z,82.21
2022-08-16T04:18:23.645Z,82.51
2022-08-16T04:19:23.715Z,82.31
2022-08-16T04:20:34.061Z,82.01
2022-08-16T04:21:29.303Z,82.01
2022-08-16T04:22:27.613Z,81.91
2022-08-16T04:23:24.038Z,82.01
2022-08-16T04:24:28.891Z,82.11
2022-08-16T04:25:24.183Z,82.31
2022-08-16T04:26:24.283Z,82.31
2022-08-16T04:27:29.071Z,82.31
2022-08-16T04:28:54.435Z,82.51
2022-08-16T04:29:25.121Z,82.51
2022-08-16T04:30:31.988Z,82.62
2022-08-16T04:31:24.710Z,82.96
2022-08-16T04:32:24.808Z,83.26
2022-08-16T04:33:27.406Z,83.16
2022-08-16T04:34:25.052Z,83.36
2022-08-16T04:35:24.977Z,83.26
2022-08-16T04:36:25.080Z,83.26
2022-08-16T04:37:25.506Z,83.06
2022-08-16T04:38:25.222Z,82.92
2022-08-16T04:39:46.198Z,82.82
2022-08-16T04:40:25.583Z,82.62
2022-08-16T04:41:32.942Z,82.42
2022-08-16T04:42:27.523Z,82.62
2022-08-16T04:43:25.588Z,82.71
2022-08-16T04:44:32.764Z,82.62
2022-08-16T04:45:35.563Z,82.92
2022-08-16T04:47:00.955Z,82.82
2022-08-16T04:47:31.534Z,82.51
2022-08-16T04:48:28.406Z,82.71
2022-08-16T04:49:26.077Z,82.51
2022-08-16T04:50:30.333Z,82.42
2022-08-16T04:51:26.236Z,82.51
2022-08-16T04:52:33.622Z,82.42
2022-08-16T04:53:26.402Z,82.62
2022-08-16T04:54:26.440Z,82.42
2022-08-16T04:55:31.682Z,82.18
2022-08-16T04:56:26.596Z,82.28
2022-08-16T04:57:30.214Z,82.07
2022-08-16T04:58:44.009Z,82.38
2022-08-16T04:59:29.529Z,82.48
2022-08-16T05:00:32.657Z,82.28
2022-08-16T05:01:56.070Z,82.07
2022-08-16T05:02:41.636Z,82.18
2022-08-16T05:03:27.220Z,82.24
2022-08-16T05:04:30.007Z,82.14
2022-08-16T05:05:32.710Z,81.63
2022-08-16T05:06:42.374Z,81.63
2022-08-16T05:07:27.466Z,82.04
2022-08-16T05:08:28.155Z,82.04
2022-08-16T05:09:28.503Z,82.14
2022-08-16T05:10:27.705Z,82.24
2022-08-16T05:11:32.152Z,82.14
2022-08-16T05:12:30.707Z,81.79
2022-08-16T05:13:40.640Z,81.90
2022-08-16T05:14:45.380Z,81.79
2022-08-16T05:15:28.115Z,81.49
2022-08-16T05:16:28.202Z,81.59
2022-08-16T05:17:28.272Z,81.49
2022-08-16T05:18:28.354Z,81.49
2022-08-16T05:19:28.426Z,80.99
2022-08-16T05:20:38.794Z,81.19
2022-08-16T05:21:35.965Z,81.26
2022-08-16T05:22:28.734Z,81.35
2022-08-16T05:23:31.597Z,81.65
2022-08-16T05:24:28.817Z,81.46
2022-08-16T05:25:29.618Z,81.46
2022-08-16T05:26:28.989Z,81.56
2022-08-16T05:27:29.058Z,81.76
2022-08-16T05:28:37.641Z,81.99
2022-08-16T05:29:57.557Z,81.85
2022-08-16T05:30:35.629Z,82.06
2022-08-16T05:31:30.405Z,81.65
2022-08-16T05:32:32.787Z,82.46
2022-08-16T05:33:29.538Z,82.46
2022-08-16T05:34:29.578Z,82.26
2022-08-16T05:35:29.690Z,82.97
2022-08-16T05:36:34.370Z,82.76
2022-08-16T05:37:39.568Z,82.56
2022-08-16T05:38:31.051Z,82.66
2022-08-16T05:39:30.054Z,82.46
2022-08-16T05:40:30.086Z,82.56
2022-08-16T05:41:30.602Z,82.76
2022-08-16T05:42:35.979Z,82.86
2022-08-16T05:43:32.208Z,82.66
2022-08-16T05:44:30.410Z,82.62
2022-08-16T05:45:30.502Z,82.62
2022-08-16T05:46:31.469Z,82.72
2022-08-16T05:47:30.672Z,82.52
2022-08-16T05:48:30.749Z,82.42
2022-08-16T05:49:38.911Z,82.22
2022-08-16T05:50:34.424Z,82.12
2022-08-16T05:51:39.090Z,82.32
2022-08-16T05:52:31.038Z,81.88
2022-08-16T05:53:31.127Z,81.78
2022-08-16T05:54:31.201Z,81.88
2022-08-16T05:55:31.280Z,81.48
2022-08-16T05:56:31.348Z,81.48
2022-08-16T05:57:34.506Z,81.24
2022-08-16T05:58:32.861Z,80.94
2022-08-16T05:59:31.604Z,80.63
2022-08-16T06:00:31.708Z,80.43
2022-08-16T06:01:32.973Z,80.43
2022-08-16T06:02:33.253Z,80.10
2022-08-16T06:03:31.945Z,79.90
2022-08-16T06:04:36.655Z,79.90
2022-08-16T06:05:32.099Z,79.69
2022-08-16T06:06:32.178Z,79.36
2022-08-16T06:07:32.421Z,79.16
2022-08-16T06:08:44.708Z,79.05
2022-08-16T06:09:42.627Z,78.96
2022-08-16T06:10:33.419Z,79.05
2022-08-16T06:11:32.598Z,78.75
2022-08-16T06:12:32.675Z,78.52
2022-08-16T06:13:32.890Z,77.87
2022-08-16T06:14:32.837Z,76.30
2022-08-16T06:15:32.934Z,74.39
2022-08-16T06:16:33.014Z,72.02
2022-08-16T06:17:41.417Z,70.56
2022-08-16T06:18:33.182Z,69.23
2022-08-16T06:19:33.842Z,67.86
2022-08-16T06:20:35.212Z,67.10
2022-08-16T06:21:36.702Z,65.35
2022-08-16T06:22:37.537Z,64.00
2022-08-16T06:23:33.595Z,63.92
2022-08-16T06:24:54.572Z,62.87
2022-08-16T06:25:36.437Z,62.18
2022-08-16T06:26:36.915Z,61.52
2022-08-16T06:27:40.707Z,60.50
2022-08-16T06:28:36.230Z,59.75
2022-08-16T06:29:34.084Z,58.63
2022-08-16T06:30:34.160Z,57.84
2022-08-16T06:31:45.269Z,57.84
2022-08-16T06:32:47.798Z,57.90
2022-08-16T06:33:41.052Z,57.02
2022-08-16T06:34:55.970Z,56.40
2022-08-16T06:35:40.135Z,55.85
2022-08-16T06:36:34.614Z,54.53
2022-08-16T06:37:36.917Z,54.24
2022-08-16T06:38:34.800Z,53.72
2022-08-16T06:39:34.873Z,54.31
2022-08-16T06:40:34.959Z,53.15
2022-08-16T06:41:39.688Z,51.81
2022-08-16T06:42:39.609Z,50.51
2022-08-16T06:43:35.412Z,49.87
2022-08-16T06:44:35.290Z,49.46
2022-08-16T06:45:35.395Z,48.23
2022-08-16T06:46:35.473Z,47.74
2022-08-16T06:47:53.848Z,47.52
2022-08-16T06:48:35.690Z,46.98
2022-08-16T06:49:35.759Z,45.98
2022-08-16T06:50:35.829Z,45.83
2022-08-16T06:51:46.151Z,44.93
2022-08-16T06:53:09.124Z,44.42
2022-08-16T06:53:36.394Z,43.73
2022-08-16T06:54:36.148Z,43.23
2022-08-16T06:55:38.366Z,43.32
2022-08-16T06:56:36.341Z,43.84
2022-08-16T06:57:39.764Z,43.93
2022-08-16T06:58:36.955Z,44.03
2022-08-16T06:59:52.725Z,43.73
2022-08-16T07:00:37.538Z,43.13
2022-08-16T07:01:43.202Z,43.10
2022-08-16T07:02:36.964Z,43.66
2022-08-16T07:03:54.970Z,44.17
2022-08-16T07:04:37.297Z,45.61
2022-08-16T07:05:42.040Z,45.98
2022-08-16T07:06:37.205Z,45.27
2022-08-16T07:07:37.313Z,44.44
2022-08-16T07:08:37.427Z,43.71
2022-08-16T07:09:37.488Z,42.60
2022-08-16T07:10:37.567Z,43.52
2022-08-16T07:11:48.254Z,43.30
2022-08-16T07:12:47.476Z,42.29
2022-08-16T07:14:37.898Z,40.42
2022-08-16T07:15:37.991Z,39.22
2022-08-16T07:16:38.041Z,39.08
2022-08-16T07:17:38.122Z,38.11
2022-08-16T07:18:38.232Z,38.11
2022-08-16T07:20:02.639Z,38.31
2022-08-16T07:20:47.957Z,37.80
2022-08-16T07:21:46.590Z,38.60
2022-08-16T07:22:39.828Z,37.60
2022-08-16T07:23:39.334Z,37.39
2022-08-16T07:24:45.872Z,36.79
2022-08-16T07:25:40.147Z,36.58
2022-08-16T07:26:38.889Z,36.11
2022-08-16T07:27:38.991Z,37.85
2022-08-16T07:28:39.095Z,37.64
2022-08-16T07:29:40.088Z,37.84
2022-08-16T07:30:45.833Z,38.67
2022-08-16T07:31:39.320Z,38.26
2022-08-16T07:32:39.379Z,38.07
2022-08-16T07:33:52.028Z,38.07
2022-08-16T07:34:48.252Z,38.05
2022-08-16T07:35:44.340Z,38.32
2022-08-16T07:36:39.697Z,37.34
2022-08-16T07:37:40.049Z,37.62
2022-08-16T07:38:39.889Z,37.93
2022-08-16T07:39:43.232Z,37.41
2022-08-16T07:40:59.747Z,37.04
2022-08-16T07:41:40.140Z,36.91
2022-08-16T07:42:40.212Z,35.90
2022-08-16T07:43:41.514Z,35.49
2022-08-16T07:44:50.298Z,36.22
2022-08-16T07:45:43.098Z,36.75
2022-08-16T07:46:40.556Z,37.16
2022-08-16T07:47:41.949Z,37.34
2022-08-16T07:48:40.746Z,37.02
2022-08-16T07:49:53.355Z,36.73
2022-08-16T07:50:56.950Z,36.75
2022-08-16T07:51:40.963Z,38.46
2022-08-16T07:52:41.098Z,37.76
2022-08-16T07:53:43.673Z,37.60
2022-08-16T07:54:46.002Z,36.30
2022-08-16T07:55:47.709Z,35.88
2022-08-16T07:56:41.365Z,35.25
2022-08-16T07:57:58.017Z,33.95
2022-08-16T07:58:41.568Z,33.26
2022-08-16T07:59:45.633Z,32.87
2022-08-16T08:00:41.718Z,33.17
2022-08-16T08:01:41.782Z,33.59
2022-08-16T08:02:41.874Z,34.41
2022-08-16T08:03:47.572Z,34.39
2022-08-16T08:04:42.058Z,34.59
2022-08-16T08:05:42.139Z,34.07
2022-08-16T08:06:42.229Z,33.60
2022-08-16T08:07:45.046Z,34.51
2022-08-16T08:08:51.044Z,34.30
2022-08-16T08:09:43.213Z,34.27
2022-08-16T08:10:42.579Z,33.37
2022-08-16T08:11:59.754Z,33.45
2022-08-16T08:12:43.774Z,32.68
2022-08-16T08:13:43.109Z,33.07
2022-08-16T08:14:42.908Z,32.76
2022-08-16T08:15:53.047Z,32.24
2022-08-16T08:16:45.408Z,31.45
2022-08-16T08:17:44.063Z,31.04
2022-08-16T08:18:43.252Z,31.28
2022-08-16T08:19:43.311Z,31.57
2022-08-16T08:20:43.415Z,31.96
2022-08-16T08:21:59.950Z,31.96
2022-08-16T08:22:43.667Z,31.67
2022-08-16T08:23:43.721Z,32.07
2022-08-16T08:24:44.148Z,31.98
2022-08-16T08:25:53.655Z,32.17
2022-08-16T08:26:44.462Z,32.06
2022-08-16T08:27:44.198Z,32.26
2022-08-16T08:28:44.077Z,32.38
2022-08-16T08:29:44.136Z,32.47
2022-08-16T08:31:02.656Z,32.36
2022-08-16T08:31:44.297Z,32.36
2022-08-16T08:32:59.914Z,32.06
2022-08-16T08:33:47.323Z,32.15
2022-08-16T08:34:46.537Z,31.85
2022-08-16T08:35:44.594Z,31.76
2022-08-16T08:36:44.707Z,31.98
2022-08-16T08:37:54.792Z,32.17
2022-08-16T08:38:46.253Z,32.36
2022-08-16T08:39:54.942Z,32.75
2022-08-16T08:40:45.921Z,32.06
2022-08-16T08:41:46.419Z,31.15
2022-08-16T08:42:45.208Z,30.94
2022-08-16T08:43:45.303Z,30.96
2022-08-16T08:44:45.379Z,31.38
2022-08-16T08:45:47.083Z,32.49
2022-08-16T08:46:45.583Z,32.68
2022-08-16T08:47:45.628Z,32.56
2022-08-16T08:48:45.764Z,31.86
2022-08-16T08:49:50.231Z,31.76
2022-08-16T08:50:50.256Z,32.57
2022-08-16T08:51:45.968Z,32.47
2022-08-16T08:52:47.779Z,32.87
2022-08-16T08:53:46.163Z,32.68
2022-08-16T08:54:46.237Z,33.17
2022-08-16T08:55:46.303Z,32.46
2022-08-16T08:56:46.422Z,31.86
2022-08-16T08:57:46.484Z,30.77
2022-08-16T08:58:54.816Z,30.85
2022-08-16T08:59:46.656Z,31.28
2022-08-16T09:00:51.365Z,31.96
2022-08-16T09:01:56.632Z,31.07
2022-08-16T09:02:52.122Z,31.38
2022-08-16T09:03:47.090Z,31.49
2022-08-16T09:04:47.517Z,31.83
2022-08-16T09:05:51.248Z,32.79
2022-08-16T09:06:47.251Z,32.51
2022-08-16T09:08:01.995Z,31.99
2022-08-16T09:08:47.623Z,31.38
2022-08-16T09:09:47.539Z,30.77
2022-08-16T09:10:47.614Z,29.79
2022-08-16T09:11:53.337Z,29.50
2022-08-16T09:12:48.009Z,29.71
2022-08-16T09:13:48.390Z,29.52
2022-08-16T09:14:51.137Z,29.69
2022-08-16T09:15:48.046Z,29.77
2022-08-16T09:17:04.078Z,28.78
2022-08-16T09:17:52.092Z,28.78
2022-08-16T09:18:55.123Z,29.55
2022-08-16T09:19:50.295Z,28.78
2022-08-16T09:20:59.269Z,28.86
2022-08-16T09:21:48.526Z,29.08
2022-08-16T09:22:52.263Z,28.97
2022-08-16T09:23:48.714Z,29.06
2022-08-16T09:24:53.168Z,28.48
2022-08-16T09:25:48.854Z,28.00
2022-08-16T09:26:48.905Z,28.48
2022-08-16T09:27:58.046Z,28.67
2022-08-16T09:29:16.711Z,28.48
2022-08-16T09:29:49.164Z,28.61
2022-08-16T09:30:49.220Z,29.50
2022-08-16T09:31:53.613Z,30.12
2022-08-16T09:32:49.594Z,30.51
2022-08-16T09:33:52.018Z,30.72
2022-08-16T09:34:49.583Z,30.51
2022-08-16T09:35:52.921Z,30.21
2022-08-16T09:36:49.730Z,29.71
2022-08-16T09:38:00.951Z,29.50
2022-08-16T09:38:49.931Z,29.28
2022-08-16T09:39:50.514Z,28.29
2022-08-16T09:40:50.123Z,28.27
2022-08-16T09:41:53.468Z,27.69
2022-08-16T09:42:58.655Z,27.58
2022-08-16T09:43:59.388Z,27.61
2022-08-16T09:45:10.951Z,28.00
2022-08-16T09:45:50.533Z,28.31
2022-08-16T09:46:52.137Z,28.81
2022-08-16T09:47:57.378Z,29.41
2022-08-16T09:48:51.181Z,29.69
2022-08-16T09:49:51.327Z,29.21
2022-08-16T09:50:50.923Z,28.44
2022-08-16T09:51:51.028Z,28.70
2022-08-16T09:52:51.187Z,28.20
2022-08-16T09:53:53.720Z,27.71
2022-08-16T09:54:51.273Z,26.93
2022-08-16T09:55:51.376Z,27.23
2022-08-16T09:56:53.655Z,27.62
2022-08-16T09:57:52.922Z,28.34
2022-08-16T09:59:04.961Z,28.94
2022-08-16T09:59:56.172Z,29.34
2022-08-16T10:00:51.774Z,29.83
2022-08-16T10:01:51.886Z,29.85
2022-08-16T10:02:51.948Z,29.85
2022-08-16T10:04:02.457Z,30.35
2022-08-16T10:04:54.895Z,30.54
2022-08-16T10:05:52.214Z,30.35
2022-08-16T10:06:52.311Z,30.38
2022-08-16T10:07:55.869Z,31.07
2022-08-16T10:09:05.375Z,30.78
2022-08-16T10:09:55.018Z,31.10
2022-08-16T10:10:52.576Z,32.07
2022-08-16T10:11:52.674Z,31.78
2022-08-16T10:12:55.899Z,31.96
2022-08-16T10:13:52.859Z,31.07
2022-08-16T10:14:52.931Z,30.96
2022-08-16T10:15:55.098Z,30.78
2022-08-16T10:16:59.783Z,30.49
2022-08-16T10:18:01.714Z,30.79
2022-08-16T10:19:06.687Z,31.67
2022-08-16T10:19:53.358Z,31.67
2022-08-16T10:20:53.436Z,31.26
2022-08-16T10:21:56.442Z,30.68
2022-08-16T10:23:02.059Z,30.66
2022-08-16T10:23:53.813Z,30.79
2022-08-16T10:24:55.815Z,31.39
2022-08-16T10:27:19.483Z,31.89
2022-08-16T10:27:46.166Z,31.99
2022-08-16T10:28:05.912Z,31.21
2022-08-16T10:28:54.135Z,31.31
2022-08-16T10:30:01.058Z,31.60
2022-08-16T10:30:56.351Z,31.34
2022-08-16T10:31:54.376Z,31.94
2022-08-16T10:32:54.464Z,32.23
2022-08-16T10:33:54.583Z,32.31
2022-08-16T10:34:54.622Z,32.41
2022-08-16T10:35:57.640Z,32.04
2022-08-16T10:36:54.822Z,32.41
2022-08-16T10:37:54.920Z,32.44
2022-08-16T10:38:55.021Z,32.91
2022-08-16T10:39:55.758Z,32.52
2022-08-16T10:40:55.161Z,32.62
2022-08-16T10:41:55.269Z,32.71
2022-08-16T10:42:55.345Z,32.42
2022-08-16T10:43:55.467Z,33.23
2022-08-16T10:44:55.499Z,33.25
2022-08-16T10:45:59.723Z,33.85
2022-08-16T10:46:55.669Z,34.14
2022-08-16T10:48:02.677Z,34.53
2022-08-16T10:48:56.087Z,33.85
2022-08-16T10:49:55.930Z,34.05
2022-08-16T10:50:56.008Z,34.35
2022-08-16T10:52:01.900Z,34.35
2022-08-16T10:52:59.174Z,34.66
2022-08-16T10:53:58.062Z,35.36
2022-08-16T10:54:59.654Z,35.36
2022-08-16T10:55:57.890Z,35.16
2022-08-16T10:56:57.101Z,34.76
2022-08-16T10:57:56.589Z,34.78
2022-08-16T10:58:56.731Z,34.68
2022-08-16T10:59:58.528Z,35.16
2022-08-16T11:00:57.726Z,34.48
2022-08-16T11:03:01.319Z,35.18
2022-08-16T11:03:57.713Z,35.57
2022-08-16T11:05:12.562Z,34.78
2022-08-16T11:06:00.472Z,34.78
2022-08-16T11:07:57.612Z,34.78
2022-08-16T11:10:19.893Z,34.31
2022-08-16T11:11:04.696Z,34.91
2022-08-16T11:12:14.251Z,35.02
2022-08-16T11:13:21.172Z,35.61
2022-08-16T11:14:05.976Z,35.22
2022-08-16T11:15:17.132Z,34.81
2022-08-16T11:15:58.096Z,35.00
2022-08-16T11:17:02.192Z,34.89
2022-08-16T11:19:05.591Z,34.39
2022-08-16T11:20:40.642Z,34.29
2022-08-16T11:20:58.482Z,33.92
2022-08-16T11:22:38.483Z,34.31
2022-08-16T11:22:58.646Z,34.31
2022-08-16T11:23:59.813Z,34.09
2022-08-16T11:25:57.890Z,34.01
2022-08-16T11:26:22.800Z,34.31
2022-08-16T11:27:59.063Z,33.72
2022-08-16T11:29:15.130Z,33.62
2022-08-16T11:29:59.264Z,33.65
2022-08-16T11:30:59.304Z,35.04
2022-08-16T11:31:59.397Z,35.33
2022-08-16T11:32:59.477Z,34.75
2022-08-16T11:33:59.563Z,34.73
2022-08-16T11:35:13.968Z,34.03
2022-08-16T11:37:01.004Z,33.44
2022-08-16T11:38:46.620Z,33.82
2022-08-16T11:39:00.699Z,33.12
2022-08-16T11:40:00.277Z,32.92
2022-08-16T11:41:00.115Z,32.03
2022-08-16T11:42:00.205Z,30.77
2022-08-16T11:43:00.261Z,31.25
2022-08-16T11:44:00.359Z,31.24
2022-08-16T11:45:00.444Z,31.34
2022-08-16T11:46:34.143Z,31.14
2022-08-16T11:47:00.593Z,31.14
2022-08-16T11:48:00.666Z,30.65
2022-08-16T11:49:00.743Z,31.35
2022-08-16T11:50:00.852Z,32.34
2022-08-16T11:51:00.928Z,31.85
2022-08-16T11:52:01.016Z,32.63
2022-08-16T11:53:02.380Z,32.73
2022-08-16T11:54:01.187Z,32.82
2022-08-16T11:55:01.252Z,32.24
2022-08-16T11:56:01.320Z,32.55
2022-08-16T11:57:01.408Z,32.35
2022-08-16T11:58:01.520Z,32.45
2022-08-16T11:59:01.575Z,32.48
2022-08-16T12:00:01.688Z,32.71
2022-08-16T12:01:01.755Z,34.14
2022-08-16T12:02:04.160Z,34.84
2022-08-16T12:03:01.945Z,36.04
2022-08-16T12:04:02.110Z,36.10
2022-08-16T12:05:02.124Z,35.30
2022-08-16T12:06:02.184Z,33.82
2022-08-16T12:07:02.254Z,33.51
2022-08-16T12:08:05.358Z,33.79
2022-08-16T12:09:02.426Z,34.26
2022-08-16T12:10:02.519Z,33.65
2022-08-16T12:11:02.776Z,32.87
2022-08-16T12:12:03.510Z,32.29
2022-08-16T12:13:03.017Z,32.70
2022-08-16T12:14:04.736Z,33.18
2022-08-16T12:15:02.927Z,33.38
2022-08-16T12:16:02.989Z,33.18
2022-08-16T12:17:03.080Z,32.50
2022-08-16T12:18:03.180Z,33.07
2022-08-16T12:19:03.266Z,32.18
2022-08-16T12:20:04.839Z,31.79
2022-08-16T12:21:03.877Z,30.81
2022-08-16T12:22:05.483Z,31.40
2022-08-16T12:23:03.576Z,31.98
2022-08-16T12:24:03.663Z,31.30
2022-08-16T12:25:03.751Z,31.40
2022-08-16T12:26:06.293Z,31.40
2022-08-16T12:27:03.908Z,30.32
2022-08-16T12:28:03.996Z,30.91
2022-08-16T12:29:04.069Z,32.37
2022-08-16T12:30:04.156Z,34.92
2022-08-16T12:31:04.211Z,35.71
2022-08-16T12:32:36.116Z,36.21
2022-08-16T12:33:04.377Z,36.52
2022-08-16T12:34:04.469Z,36.93
2022-08-16T12:35:04.563Z,37.24
2022-08-16T12:36:04.622Z,37.55
2022-08-16T12:37:08.996Z,37.87
2022-08-16T12:38:37.806Z,38.16
2022-08-16T12:39:04.867Z,38.18
2022-08-16T12:40:05.192Z,38.57
2022-08-16T12:41:05.043Z,38.67
2022-08-16T12:42:05.121Z,38.28
2022-08-16T12:43:05.192Z,38.76
2022-08-16T12:44:05.290Z,38.96
2022-08-16T12:45:05.384Z,39.06
2022-08-16T12:46:05.447Z,39.25
2022-08-16T12:47:05.524Z,39.25
2022-08-16T12:48:31.502Z,39.66
2022-08-16T12:49:05.691Z,39.56
2022-08-16T12:50:07.585Z,39.78
2022-08-16T12:51:13.719Z,39.78
2022-08-16T12:52:05.963Z,39.88
2022-08-16T12:53:06.031Z,39.78
2022-08-16T12:54:06.111Z,39.59
2022-08-16T12:55:06.187Z,39.78
2022-08-16T12:56:06.326Z,39.69
2022-08-16T12:57:06.387Z,39.78
2022-08-16T12:58:14.048Z,39.66
2022-08-16T12:59:06.529Z,39.69
2022-08-16T13:00:06.612Z,39.78